sensor_id;sensor_type;location;lat;lon;timestamp;P1;durP1;ratioP1;P2;durP2;ratioP2
59756;SDS011;45631;51.962;5.974;2023-09-08T00:01:15;10.93;;;9.40;;
59756;SDS011;45631;51.962;5.974;2023-09-08T00:03:43;11.68;;;9.63;;
59756;SDS011;45631;51.962;5.974;2023-09-08T00:06:12;12.82;;;9.77;;
59756;SDS011;45631;51.962;5.974;2023-09-08T00:08:40;11.60;;;9.05;;
59756;SDS011;45631;51.962;5.974;2023-09-08T00:11:11;10.52;;;8.60;;
59756;SDS011;45631;51.962;5.974;2023-09-08T00:13:39;12.70;;;10.00;;
59756;SDS011;45631;51.962;5.974;2023-09-08T00:16:08;12.13;;;9.68;;
59756;SDS011;45631;51.962;5.974;2023-09-08T00:18:37;12.20;;;9.15;;
59756;SDS011;45631;51.962;5.974;2023-09-08T00:21:05;13.35;;;9.05;;
59756;SDS011;45631;51.962;5.974;2023-09-08T00:23:37;10.43;;;8.60;;
59756;SDS011;45631;51.962;5.974;2023-09-08T00:26:05;12.88;;;9.05;;
59756;SDS011;45631;51.962;5.974;2023-09-08T00:28:35;11.15;;;8.60;;
59756;SDS011;45631;51.962;5.974;2023-09-08T00:31:04;12.00;;;8.95;;
59756;SDS011;45631;51.962;5.974;2023-09-08T00:33:32;14.50;;;9.50;;
59756;SDS011;45631;51.962;5.974;2023-09-08T00:36:01;13.10;;;9.00;;
59756;SDS011;45631;51.962;5.974;2023-09-08T00:38:30;12.95;;;8.57;;
59756;SDS011;45631;51.962;5.974;2023-09-08T00:40:59;13.48;;;9.18;;
59756;SDS011;45631;51.962;5.974;2023-09-08T00:43:27;13.40;;;9.15;;
59756;SDS011;45631;51.962;5.974;2023-09-08T00:45:57;11.88;;;8.90;;
59756;SDS011;45631;51.962;5.974;2023-09-08T00:48:27;12.13;;;8.93;;
59756;SDS011;45631;51.962;5.974;2023-09-08T00:50:56;12.18;;;8.73;;
59756;SDS011;45631;51.962;5.974;2023-09-08T00:53:25;12.48;;;9.13;;
59756;SDS011;45631;51.962;5.974;2023-09-08T00:55:54;12.43;;;9.15;;
59756;SDS011;45631;51.962;5.974;2023-09-08T00:58:24;11.93;;;8.90;;
59756;SDS011;45631;51.962;5.974;2023-09-08T01:00:53;11.27;;;8.70;;
59756;SDS011;45631;51.962;5.974;2023-09-08T01:03:25;11.07;;;8.45;;
59756;SDS011;45631;51.962;5.974;2023-09-08T01:05:54;11.30;;;8.48;;
59756;SDS011;45631;51.962;5.974;2023-09-08T01:08:23;11.38;;;8.55;;
59756;SDS011;45631;51.962;5.974;2023-09-08T01:10:52;12.77;;;9.05;;
59756;SDS011;45631;51.962;5.974;2023-09-08T01:13:20;12.00;;;9.02;;
59756;SDS011;45631;51.962;5.974;2023-09-08T01:15:49;14.10;;;9.02;;
59756;SDS011;45631;51.962;5.974;2023-09-08T01:18:18;11.70;;;8.95;;
59756;SDS011;45631;51.962;5.974;2023-09-08T01:20:58;12.15;;;9.30;;
59756;SDS011;45631;51.962;5.974;2023-09-08T01:23:38;12.20;;;9.73;;
59756;SDS011;45631;51.962;5.974;2023-09-08T01:26:20;11.73;;;9.90;;
59756;SDS011;45631;51.962;5.974;2023-09-08T01:31:20;10.85;;;8.38;;
59756;SDS011;45631;51.962;5.974;2023-09-08T01:33:48;13.02;;;9.52;;
59756;SDS011;45631;51.962;5.974;2023-09-08T01:36:17;13.32;;;9.02;;
59756;SDS011;45631;51.962;5.974;2023-09-08T01:38:46;12.32;;;9.80;;
59756;SDS011;45631;51.962;5.974;2023-09-08T01:41:14;11.88;;;9.10;;
59756;SDS011;45631;51.962;5.974;2023-09-08T01:43:44;12.73;;;9.63;;
59756;SDS011;45631;51.962;5.974;2023-09-08T01:46:13;11.68;;;8.95;;
59756;SDS011;45631;51.962;5.974;2023-09-08T01:48:41;14.00;;;9.45;;
59756;SDS011;45631;51.962;5.974;2023-09-08T01:51:10;12.55;;;9.40;;
59756;SDS011;45631;51.962;5.974;2023-09-08T01:53:38;11.55;;;8.85;;
59756;SDS011;45631;51.962;5.974;2023-09-08T01:56:07;11.82;;;9.00;;
59756;SDS011;45631;51.962;5.974;2023-09-08T01:58:35;13.07;;;9.23;;
59756;SDS011;45631;51.962;5.974;2023-09-08T02:01:05;11.63;;;9.27;;
59756;SDS011;45631;51.962;5.974;2023-09-08T02:03:34;13.32;;;9.90;;
59756;SDS011;45631;51.962;5.974;2023-09-08T02:06:02;12.73;;;9.20;;
59756;SDS011;45631;51.962;5.974;2023-09-08T02:08:31;13.20;;;9.73;;
59756;SDS011;45631;51.962;5.974;2023-09-08T02:11:00;13.35;;;10.02;;
59756;SDS011;45631;51.962;5.974;2023-09-08T02:13:28;12.05;;;9.57;;
59756;SDS011;45631;51.962;5.974;2023-09-08T02:15:57;13.15;;;9.90;;
59756;SDS011;45631;51.962;5.974;2023-09-08T02:18:27;13.52;;;9.98;;
59756;SDS011;45631;51.962;5.974;2023-09-08T02:20:55;13.63;;;9.77;;
59756;SDS011;45631;51.962;5.974;2023-09-08T02:23:24;12.00;;;9.43;;
59756;SDS011;45631;51.962;5.974;2023-09-08T02:25:52;13.40;;;9.98;;
59756;SDS011;45631;51.962;5.974;2023-09-08T02:28:21;11.98;;;9.55;;
59756;SDS011;45631;51.962;5.974;2023-09-08T02:30:49;11.55;;;9.68;;
59756;SDS011;45631;51.962;5.974;2023-09-08T02:33:18;11.98;;;9.68;;
59756;SDS011;45631;51.962;5.974;2023-09-08T02:35:48;11.63;;;9.02;;
59756;SDS011;45631;51.962;5.974;2023-09-08T02:38:16;13.85;;;10.10;;
59756;SDS011;45631;51.962;5.974;2023-09-08T02:40:44;12.93;;;9.73;;
59756;SDS011;45631;51.962;5.974;2023-09-08T02:43:13;12.48;;;9.75;;
59756;SDS011;45631;51.962;5.974;2023-09-08T02:45:41;13.27;;;9.68;;
59756;SDS011;45631;51.962;5.974;2023-09-08T02:48:10;13.13;;;9.60;;
59756;SDS011;45631;51.962;5.974;2023-09-08T02:50:38;12.48;;;9.52;;
59756;SDS011;45631;51.962;5.974;2023-09-08T02:53:08;13.00;;;9.88;;
59756;SDS011;45631;51.962;5.974;2023-09-08T02:55:37;12.52;;;10.10;;
59756;SDS011;45631;51.962;5.974;2023-09-08T02:58:05;13.07;;;9.80;;
59756;SDS011;45631;51.962;5.974;2023-09-08T03:00:34;14.02;;;10.45;;
59756;SDS011;45631;51.962;5.974;2023-09-08T03:03:02;13.88;;;11.05;;
59756;SDS011;45631;51.962;5.974;2023-09-08T03:05:31;12.57;;;10.10;;
59756;SDS011;45631;51.962;5.974;2023-09-08T03:08:00;12.07;;;10.32;;
59756;SDS011;45631;51.962;5.974;2023-09-08T03:10:30;13.23;;;10.07;;
59756;SDS011;45631;51.962;5.974;2023-09-08T03:13:00;12.97;;;9.90;;
59756;SDS011;45631;51.962;5.974;2023-09-08T03:15:29;13.57;;;9.70;;
59756;SDS011;45631;51.962;5.974;2023-09-08T03:17:58;14.13;;;9.88;;
59756;SDS011;45631;51.962;5.974;2023-09-08T03:20:27;13.38;;;10.13;;
59756;SDS011;45631;51.962;5.974;2023-09-08T03:22:55;12.82;;;10.35;;
59756;SDS011;45631;51.962;5.974;2023-09-08T03:25:24;13.05;;;10.38;;
59756;SDS011;45631;51.962;5.974;2023-09-08T03:27:54;13.05;;;9.93;;
59756;SDS011;45631;51.962;5.974;2023-09-08T03:30:22;14.45;;;10.77;;
59756;SDS011;45631;51.962;5.974;2023-09-08T03:32:53;12.35;;;9.90;;
59756;SDS011;45631;51.962;5.974;2023-09-08T03:35:22;12.40;;;9.80;;
59756;SDS011;45631;51.962;5.974;2023-09-08T03:37:51;14.95;;;10.75;;
59756;SDS011;45631;51.962;5.974;2023-09-08T03:40:19;12.93;;;10.32;;
59756;SDS011;45631;51.962;5.974;2023-09-08T03:42:47;14.35;;;10.82;;
59756;SDS011;45631;51.962;5.974;2023-09-08T03:45:17;13.95;;;10.90;;
59756;SDS011;45631;51.962;5.974;2023-09-08T03:47:46;14.27;;;11.02;;
59756;SDS011;45631;51.962;5.974;2023-09-08T03:50:15;12.50;;;10.13;;
59756;SDS011;45631;51.962;5.974;2023-09-08T03:52:43;15.38;;;10.38;;
59756;SDS011;45631;51.962;5.974;2023-09-08T03:55:12;14.18;;;9.77;;
59756;SDS011;45631;51.962;5.974;2023-09-08T03:57:40;13.98;;;10.20;;
59756;SDS011;45631;51.962;5.974;2023-09-08T04:00:09;13.93;;;9.60;;
59756;SDS011;45631;51.962;5.974;2023-09-08T04:02:40;13.30;;;10.23;;
59756;SDS011;45631;51.962;5.974;2023-09-08T04:05:08;12.98;;;9.77;;
59756;SDS011;45631;51.962;5.974;2023-09-08T04:07:38;13.13;;;10.80;;
59756;SDS011;45631;51.962;5.974;2023-09-08T04:10:07;13.40;;;10.50;;
59756;SDS011;45631;51.962;5.974;2023-09-08T04:12:36;12.77;;;9.80;;
59756;SDS011;45631;51.962;5.974;2023-09-08T04:15:05;11.98;;;9.65;;
59756;SDS011;45631;51.962;5.974;2023-09-08T04:17:36;14.45;;;10.68;;
59756;SDS011;45631;51.962;5.974;2023-09-08T04:20:07;14.95;;;10.45;;
59756;SDS011;45631;51.962;5.974;2023-09-08T04:22:36;13.38;;;9.73;;
59756;SDS011;45631;51.962;5.974;2023-09-08T04:25:04;14.05;;;10.02;;
59756;SDS011;45631;51.962;5.974;2023-09-08T04:27:34;12.50;;;10.20;;
59756;SDS011;45631;51.962;5.974;2023-09-08T04:30:03;17.38;;;9.80;;
59756;SDS011;45631;51.962;5.974;2023-09-08T04:32:33;13.52;;;10.32;;
59756;SDS011;45631;51.962;5.974;2023-09-08T04:35:04;12.98;;;10.57;;
59756;SDS011;45631;51.962;5.974;2023-09-08T04:37:35;14.52;;;10.20;;
59756;SDS011;45631;51.962;5.974;2023-09-08T04:40:05;12.85;;;10.15;;
59756;SDS011;45631;51.962;5.974;2023-09-08T04:42:35;14.80;;;10.85;;
59756;SDS011;45631;51.962;5.974;2023-09-08T04:45:04;14.18;;;10.80;;
59756;SDS011;45631;51.962;5.974;2023-09-08T04:47:34;15.50;;;12.65;;
59756;SDS011;45631;51.962;5.974;2023-09-08T04:50:06;17.75;;;11.52;;
59756;SDS011;45631;51.962;5.974;2023-09-08T04:52:36;14.32;;;11.52;;
59756;SDS011;45631;51.962;5.974;2023-09-08T04:55:05;14.75;;;11.23;;
59756;SDS011;45631;51.962;5.974;2023-09-08T04:57:34;13.15;;;10.80;;
59756;SDS011;45631;51.962;5.974;2023-09-08T05:00:02;14.85;;;11.30;;
59756;SDS011;45631;51.962;5.974;2023-09-08T05:02:31;16.00;;;11.50;;
59756;SDS011;45631;51.962;5.974;2023-09-08T05:05:00;16.08;;;12.27;;
59756;SDS011;45631;51.962;5.974;2023-09-08T05:07:30;14.10;;;11.48;;
59756;SDS011;45631;51.962;5.974;2023-09-08T05:09:58;16.73;;;12.38;;
59756;SDS011;45631;51.962;5.974;2023-09-08T05:12:27;17.30;;;12.18;;
59756;SDS011;45631;51.962;5.974;2023-09-08T05:14:55;14.90;;;12.48;;
59756;SDS011;45631;51.962;5.974;2023-09-08T05:17:26;14.80;;;12.25;;
59756;SDS011;45631;51.962;5.974;2023-09-08T05:19:57;17.15;;;12.90;;
59756;SDS011;45631;51.962;5.974;2023-09-08T05:22:26;16.73;;;12.57;;
59756;SDS011;45631;51.962;5.974;2023-09-08T05:24:56;15.13;;;12.73;;
59756;SDS011;45631;51.962;5.974;2023-09-08T05:27:24;17.17;;;13.48;;
59756;SDS011;45631;51.962;5.974;2023-09-08T05:29:53;18.30;;;13.10;;
59756;SDS011;45631;51.962;5.974;2023-09-08T05:32:21;17.15;;;13.30;;
59756;SDS011;45631;51.962;5.974;2023-09-08T05:34:50;18.52;;;14.13;;
59756;SDS011;45631;51.962;5.974;2023-09-08T05:37:18;18.63;;;14.40;;
59756;SDS011;45631;51.962;5.974;2023-09-08T05:39:47;21.55;;;15.32;;
59756;SDS011;45631;51.962;5.974;2023-09-08T05:42:17;21.67;;;16.08;;
59756;SDS011;45631;51.962;5.974;2023-09-08T05:44:45;20.20;;;14.52;;
59756;SDS011;45631;51.962;5.974;2023-09-08T05:47:14;21.13;;;14.93;;
59756;SDS011;45631;51.962;5.974;2023-09-08T05:49:43;19.35;;;15.30;;
59756;SDS011;45631;51.962;5.974;2023-09-08T05:52:11;21.65;;;15.45;;
59756;SDS011;45631;51.962;5.974;2023-09-08T05:54:40;20.08;;;16.10;;
59756;SDS011;45631;51.962;5.974;2023-09-08T05:57:08;23.60;;;16.15;;
59756;SDS011;45631;51.962;5.974;2023-09-08T05:59:38;20.98;;;15.80;;
59756;SDS011;45631;51.962;5.974;2023-09-08T06:02:07;22.85;;;16.77;;
59756;SDS011;45631;51.962;5.974;2023-09-08T06:04:35;21.05;;;15.65;;
59756;SDS011;45631;51.962;5.974;2023-09-08T06:07:04;20.63;;;15.82;;
59756;SDS011;45631;51.962;5.974;2023-09-08T06:09:33;20.40;;;16.25;;
59756;SDS011;45631;51.962;5.974;2023-09-08T06:12:01;19.75;;;15.82;;
59756;SDS011;45631;51.962;5.974;2023-09-08T06:14:30;18.95;;;15.82;;
59756;SDS011;45631;51.962;5.974;2023-09-08T06:17:00;18.48;;;15.82;;
59756;SDS011;45631;51.962;5.974;2023-09-08T06:19:29;19.08;;;15.18;;
59756;SDS011;45631;51.962;5.974;2023-09-08T06:21:57;20.38;;;15.80;;
59756;SDS011;45631;51.962;5.974;2023-09-08T06:24:25;21.27;;;16.20;;
59756;SDS011;45631;51.962;5.974;2023-09-08T06:26:54;20.45;;;16.15;;
59756;SDS011;45631;51.962;5.974;2023-09-08T06:29:23;19.27;;;16.45;;
59756;SDS011;45631;51.962;5.974;2023-09-08T06:31:52;20.02;;;15.52;;
59756;SDS011;45631;51.962;5.974;2023-09-08T06:34:22;21.20;;;15.27;;
59756;SDS011;45631;51.962;5.974;2023-09-08T06:36:50;19.92;;;15.52;;
59756;SDS011;45631;51.962;5.974;2023-09-08T06:39:19;22.02;;;16.05;;
59756;SDS011;45631;51.962;5.974;2023-09-08T06:41:47;17.70;;;15.50;;
59756;SDS011;45631;51.962;5.974;2023-09-08T06:44:16;22.80;;;16.85;;
59756;SDS011;45631;51.962;5.974;2023-09-08T06:46:44;20.48;;;16.35;;
59756;SDS011;45631;51.962;5.974;2023-09-08T06:49:13;18.95;;;15.82;;
59756;SDS011;45631;51.962;5.974;2023-09-08T06:51:43;19.52;;;15.43;;
59756;SDS011;45631;51.962;5.974;2023-09-08T06:54:14;20.35;;;15.93;;
59756;SDS011;45631;51.962;5.974;2023-09-08T06:56:42;21.23;;;16.30;;
59756;SDS011;45631;51.962;5.974;2023-09-08T06:59:11;18.80;;;14.82;;
59756;SDS011;45631;51.962;5.974;2023-09-08T07:01:39;20.15;;;15.68;;
59756;SDS011;45631;51.962;5.974;2023-09-08T07:04:08;17.73;;;15.63;;
59756;SDS011;45631;51.962;5.974;2023-09-08T07:06:38;20.38;;;15.23;;
59756;SDS011;45631;51.962;5.974;2023-09-08T07:09:09;19.67;;;15.70;;
59756;SDS011;45631;51.962;5.974;2023-09-08T07:11:38;17.95;;;14.88;;
59756;SDS011;45631;51.962;5.974;2023-09-08T07:14:07;19.50;;;16.02;;
59756;SDS011;45631;51.962;5.974;2023-09-08T07:16:35;18.42;;;14.38;;
59756;SDS011;45631;51.962;5.974;2023-09-08T07:19:04;18.48;;;15.15;;
59756;SDS011;45631;51.962;5.974;2023-09-08T07:21:33;19.30;;;14.63;;
59756;SDS011;45631;51.962;5.974;2023-09-08T07:24:02;18.70;;;14.13;;
59756;SDS011;45631;51.962;5.974;2023-09-08T07:26:32;17.02;;;14.27;;
59756;SDS011;45631;51.962;5.974;2023-09-08T07:29:00;18.17;;;13.65;;
59756;SDS011;45631;51.962;5.974;2023-09-08T07:31:29;17.05;;;14.10;;
59756;SDS011;45631;51.962;5.974;2023-09-08T07:33:57;18.55;;;14.10;;
59756;SDS011;45631;51.962;5.974;2023-09-08T07:36:32;16.45;;;13.57;;
59756;SDS011;45631;51.962;5.974;2023-09-08T07:39:02;14.93;;;12.82;;
59756;SDS011;45631;51.962;5.974;2023-09-08T07:41:32;15.63;;;12.55;;
59756;SDS011;45631;51.962;5.974;2023-09-08T07:44:01;16.90;;;13.73;;
59756;SDS011;45631;51.962;5.974;2023-09-08T07:46:30;17.95;;;12.55;;
59756;SDS011;45631;51.962;5.974;2023-09-08T07:48:59;19.30;;;12.57;;
59756;SDS011;45631;51.962;5.974;2023-09-08T07:51:28;16.42;;;12.80;;
59756;SDS011;45631;51.962;5.974;2023-09-08T07:53:56;17.02;;;12.70;;
59756;SDS011;45631;51.962;5.974;2023-09-08T07:56:25;16.92;;;12.70;;
59756;SDS011;45631;51.962;5.974;2023-09-08T07:58:55;14.80;;;11.68;;
59756;SDS011;45631;51.962;5.974;2023-09-08T08:01:23;15.75;;;12.23;;
59756;SDS011;45631;51.962;5.974;2023-09-08T08:03:52;14.88;;;11.90;;
59756;SDS011;45631;51.962;5.974;2023-09-08T08:06:20;15.18;;;12.13;;
59756;SDS011;45631;51.962;5.974;2023-09-08T08:08:49;15.63;;;12.73;;
59756;SDS011;45631;51.962;5.974;2023-09-08T08:11:18;17.35;;;11.85;;
59756;SDS011;45631;51.962;5.974;2023-09-08T08:13:47;14.55;;;11.48;;
59756;SDS011;45631;51.962;5.974;2023-09-08T08:16:17;15.98;;;11.93;;
59756;SDS011;45631;51.962;5.974;2023-09-08T08:18:47;15.95;;;11.00;;
59756;SDS011;45631;51.962;5.974;2023-09-08T08:21:16;15.65;;;12.23;;
59756;SDS011;45631;51.962;5.974;2023-09-08T08:23:45;15.23;;;11.70;;
59756;SDS011;45631;51.962;5.974;2023-09-08T08:26:13;17.92;;;12.95;;
59756;SDS011;45631;51.962;5.974;2023-09-08T08:28:42;16.85;;;12.63;;
59756;SDS011;45631;51.962;5.974;2023-09-08T08:31:10;15.98;;;11.77;;
59756;SDS011;45631;51.962;5.974;2023-09-08T08:33:41;13.20;;;10.80;;
59756;SDS011;45631;51.962;5.974;2023-09-08T08:36:10;15.65;;;12.23;;
59756;SDS011;45631;51.962;5.974;2023-09-08T08:38:38;14.43;;;12.60;;
59756;SDS011;45631;51.962;5.974;2023-09-08T08:41:06;13.32;;;11.93;;
59756;SDS011;45631;51.962;5.974;2023-09-08T08:43:35;15.20;;;12.10;;
59756;SDS011;45631;51.962;5.974;2023-09-08T08:46:05;16.10;;;11.85;;
59756;SDS011;45631;51.962;5.974;2023-09-08T08:48:34;17.23;;;12.07;;
59756;SDS011;45631;51.962;5.974;2023-09-08T08:51:05;13.85;;;11.15;;
59756;SDS011;45631;51.962;5.974;2023-09-08T08:53:36;16.27;;;11.52;;
59756;SDS011;45631;51.962;5.974;2023-09-08T08:56:07;15.07;;;12.05;;
59756;SDS011;45631;51.962;5.974;2023-09-08T08:58:37;18.00;;;11.65;;
59756;SDS011;45631;51.962;5.974;2023-09-08T09:01:07;13.38;;;11.27;;
59756;SDS011;45631;51.962;5.974;2023-09-08T09:03:39;14.60;;;11.70;;
59756;SDS011;45631;51.962;5.974;2023-09-08T09:06:10;13.13;;;11.23;;
59756;SDS011;45631;51.962;5.974;2023-09-08T09:08:39;15.30;;;11.75;;
59756;SDS011;45631;51.962;5.974;2023-09-08T09:11:11;12.90;;;10.67;;
59756;SDS011;45631;51.962;5.974;2023-09-08T09:13:40;12.77;;;10.18;;
59756;SDS011;45631;51.962;5.974;2023-09-08T09:16:08;12.75;;;10.00;;
59756;SDS011;45631;51.962;5.974;2023-09-08T09:18:52;14.30;;;10.55;;
59756;SDS011;45631;51.962;5.974;2023-09-08T09:21:25;13.18;;;10.63;;
59756;SDS011;45631;51.962;5.974;2023-09-08T09:24:13;16.70;;;11.82;;
59756;SDS011;45631;51.962;5.974;2023-09-08T09:26:46;13.38;;;11.73;;
59756;SDS011;45631;51.962;5.974;2023-09-08T09:29:15;13.45;;;11.15;;
59756;SDS011;45631;51.962;5.974;2023-09-08T09:31:50;15.13;;;11.82;;
59756;SDS011;45631;51.962;5.974;2023-09-08T09:34:20;12.52;;;10.48;;
59756;SDS011;45631;51.962;5.974;2023-09-08T09:36:54;14.82;;;10.82;;
59756;SDS011;45631;51.962;5.974;2023-09-08T09:39:23;13.85;;;12.00;;
59756;SDS011;45631;51.962;5.974;2023-09-08T09:41:53;14.77;;;11.90;;
59756;SDS011;45631;51.962;5.974;2023-09-08T09:44:23;12.15;;;10.80;;
59756;SDS011;45631;51.962;5.974;2023-09-08T09:46:52;12.63;;;11.15;;
59756;SDS011;45631;51.962;5.974;2023-09-08T09:49:21;13.02;;;10.57;;
59756;SDS011;45631;51.962;5.974;2023-09-08T09:51:55;13.25;;;10.98;;
59756;SDS011;45631;51.962;5.974;2023-09-08T09:54:23;13.07;;;11.68;;
59756;SDS011;45631;51.962;5.974;2023-09-08T09:56:52;14.10;;;12.05;;
59756;SDS011;45631;51.962;5.974;2023-09-08T09:59:21;14.38;;;11.07;;
59756;SDS011;45631;51.962;5.974;2023-09-08T10:01:50;15.90;;;12.25;;
59756;SDS011;45631;51.962;5.974;2023-09-08T10:04:21;15.48;;;12.88;;
59756;SDS011;45631;51.962;5.974;2023-09-08T10:06:50;15.55;;;13.27;;
59756;SDS011;45631;51.962;5.974;2023-09-08T10:09:21;13.63;;;11.50;;
59756;SDS011;45631;51.962;5.974;2023-09-08T10:11:49;13.70;;;12.27;;
59756;SDS011;45631;51.962;5.974;2023-09-08T10:16:51;17.83;;;13.20;;
59756;SDS011;45631;51.962;5.974;2023-09-08T10:19:25;15.25;;;12.25;;
59756;SDS011;45631;51.962;5.974;2023-09-08T10:21:54;14.20;;;11.88;;
59756;SDS011;45631;51.962;5.974;2023-09-08T10:24:29;17.23;;;12.75;;
59756;SDS011;45631;51.962;5.974;2023-09-08T10:27:03;15.50;;;13.82;;
59756;SDS011;45631;51.962;5.974;2023-09-08T10:29:35;15.68;;;12.88;;
59756;SDS011;45631;51.962;5.974;2023-09-08T10:32:05;15.15;;;11.38;;
59756;SDS011;45631;51.962;5.974;2023-09-08T10:34:36;13.98;;;11.30;;
59756;SDS011;45631;51.962;5.974;2023-09-08T10:37:18;13.73;;;11.60;;
59756;SDS011;45631;51.962;5.974;2023-09-08T10:39:48;15.57;;;11.85;;
59756;SDS011;45631;51.962;5.974;2023-09-08T10:42:23;14.90;;;12.23;;
59756;SDS011;45631;51.962;5.974;2023-09-08T10:44:59;16.50;;;12.35;;
59756;SDS011;45631;51.962;5.974;2023-09-08T10:47:31;12.73;;;10.20;;
59756;SDS011;45631;51.962;5.974;2023-09-08T10:50:04;11.85;;;10.25;;
59756;SDS011;45631;51.962;5.974;2023-09-08T10:52:35;13.37;;;10.20;;
59756;SDS011;45631;51.962;5.974;2023-09-08T10:55:05;11.90;;;9.25;;
59756;SDS011;45631;51.962;5.974;2023-09-08T10:57:34;15.13;;;9.88;;
59756;SDS011;45631;51.962;5.974;2023-09-08T11:00:03;13.57;;;9.02;;
59756;SDS011;45631;51.962;5.974;2023-09-08T11:02:39;9.57;;;6.45;;
59756;SDS011;45631;51.962;5.974;2023-09-08T11:05:10;9.30;;;6.07;;
59756;SDS011;45631;51.962;5.974;2023-09-08T11:07:40;9.63;;;6.93;;
59756;SDS011;45631;51.962;5.974;2023-09-08T11:10:12;10.35;;;6.90;;
59756;SDS011;45631;51.962;5.974;2023-09-08T11:12:41;11.48;;;6.47;;
59756;SDS011;45631;51.962;5.974;2023-09-08T11:15:10;7.82;;;6.25;;
59756;SDS011;45631;51.962;5.974;2023-09-08T11:17:38;11.80;;;6.97;;
59756;SDS011;45631;51.962;5.974;2023-09-08T11:20:09;10.38;;;7.25;;
59756;SDS011;45631;51.962;5.974;2023-09-08T11:22:39;11.50;;;7.78;;
59756;SDS011;45631;51.962;5.974;2023-09-08T11:25:08;9.65;;;7.18;;
59756;SDS011;45631;51.962;5.974;2023-09-08T11:27:40;9.40;;;5.78;;
59756;SDS011;45631;51.962;5.974;2023-09-08T11:30:08;11.13;;;6.55;;
59756;SDS011;45631;51.962;5.974;2023-09-08T11:32:38;8.80;;;6.45;;
59756;SDS011;45631;51.962;5.974;2023-09-08T11:35:07;12.48;;;6.75;;
59756;SDS011;45631;51.962;5.974;2023-09-08T11:37:37;9.48;;;6.20;;
59756;SDS011;45631;51.962;5.974;2023-09-08T11:40:08;8.30;;;6.03;;
59756;SDS011;45631;51.962;5.974;2023-09-08T11:42:43;9.88;;;5.82;;
59756;SDS011;45631;51.962;5.974;2023-09-08T11:45:13;10.77;;;7.15;;
59756;SDS011;45631;51.962;5.974;2023-09-08T11:47:45;13.05;;;6.00;;
59756;SDS011;45631;51.962;5.974;2023-09-08T11:50:13;11.90;;;6.78;;
59756;SDS011;45631;51.962;5.974;2023-09-08T11:52:44;8.63;;;5.95;;
59756;SDS011;45631;51.962;5.974;2023-09-08T11:55:14;10.10;;;7.03;;
59756;SDS011;45631;51.962;5.974;2023-09-08T11:57:45;12.45;;;7.78;;
59756;SDS011;45631;51.962;5.974;2023-09-08T12:00:17;19.10;;;8.40;;
59756;SDS011;45631;51.962;5.974;2023-09-08T12:02:49;10.93;;;6.93;;
59756;SDS011;45631;51.962;5.974;2023-09-08T12:05:22;12.88;;;8.55;;
59756;SDS011;45631;51.962;5.974;2023-09-08T12:07:52;11.82;;;7.10;;
59756;SDS011;45631;51.962;5.974;2023-09-08T12:10:23;8.23;;;6.18;;
59756;SDS011;45631;51.962;5.974;2023-09-08T12:12:54;11.07;;;6.80;;
59756;SDS011;45631;51.962;5.974;2023-09-08T12:15:30;13.07;;;8.68;;
59756;SDS011;45631;51.962;5.974;2023-09-08T12:18:00;14.23;;;8.38;;
59756;SDS011;45631;51.962;5.974;2023-09-08T12:20:30;10.02;;;6.60;;
59756;SDS011;45631;51.962;5.974;2023-09-08T12:22:59;9.10;;;7.20;;
59756;SDS011;45631;51.962;5.974;2023-09-08T12:25:29;9.55;;;6.43;;
59756;SDS011;45631;51.962;5.974;2023-09-08T12:28:02;9.80;;;7.30;;
59756;SDS011;45631;51.962;5.974;2023-09-08T12:30:31;7.88;;;6.13;;
59756;SDS011;45631;51.962;5.974;2023-09-08T12:33:01;8.70;;;6.43;;
59756;SDS011;45631;51.962;5.974;2023-09-08T12:35:30;8.50;;;5.07;;
59756;SDS011;45631;51.962;5.974;2023-09-08T12:37:59;6.60;;;4.35;;
59756;SDS011;45631;51.962;5.974;2023-09-08T12:40:29;7.32;;;4.90;;
59756;SDS011;45631;51.962;5.974;2023-09-08T12:42:59;9.25;;;5.15;;
59756;SDS011;45631;51.962;5.974;2023-09-08T12:45:48;8.90;;;4.70;;
59756;SDS011;45631;51.962;5.974;2023-09-08T12:48:16;9.07;;;5.60;;
59756;SDS011;45631;51.962;5.974;2023-09-08T12:50:46;7.68;;;5.13;;
59756;SDS011;45631;51.962;5.974;2023-09-08T12:53:15;10.15;;;5.25;;
59756;SDS011;45631;51.962;5.974;2023-09-08T12:55:45;8.02;;;4.80;;
59756;SDS011;45631;51.962;5.974;2023-09-08T12:58:14;9.43;;;4.90;;
59756;SDS011;45631;51.962;5.974;2023-09-08T13:00:43;10.88;;;5.38;;
59756;SDS011;45631;51.962;5.974;2023-09-08T13:03:13;9.63;;;5.55;;
59756;SDS011;45631;51.962;5.974;2023-09-08T13:05:42;7.95;;;5.40;;
59756;SDS011;45631;51.962;5.974;2023-09-08T13:08:10;8.15;;;5.38;;
59756;SDS011;45631;51.962;5.974;2023-09-08T13:10:42;8.77;;;4.87;;
59756;SDS011;45631;51.962;5.974;2023-09-08T13:13:10;7.82;;;4.93;;
59756;SDS011;45631;51.962;5.974;2023-09-08T13:15:39;7.60;;;4.20;;
59756;SDS011;45631;51.962;5.974;2023-09-08T13:18:08;8.57;;;4.70;;
59756;SDS011;45631;51.962;5.974;2023-09-08T13:20:38;7.82;;;4.18;;
59756;SDS011;45631;51.962;5.974;2023-09-08T13:23:06;7.30;;;4.60;;
59756;SDS011;45631;51.962;5.974;2023-09-08T13:25:35;6.25;;;4.18;;
59756;SDS011;45631;51.962;5.974;2023-09-08T13:28:04;7.22;;;4.32;;
59756;SDS011;45631;51.962;5.974;2023-09-08T13:30:33;9.02;;;4.45;;
59756;SDS011;45631;51.962;5.974;2023-09-08T13:33:02;7.93;;;4.53;;
59756;SDS011;45631;51.962;5.974;2023-09-08T13:35:31;7.82;;;4.00;;
59756;SDS011;45631;51.962;5.974;2023-09-08T13:38:01;7.75;;;4.10;;
59756;SDS011;45631;51.962;5.974;2023-09-08T13:40:30;6.95;;;3.80;;
59756;SDS011;45631;51.962;5.974;2023-09-08T13:42:59;8.43;;;4.30;;
59756;SDS011;45631;51.962;5.974;2023-09-08T13:45:28;10.68;;;4.60;;
59756;SDS011;45631;51.962;5.974;2023-09-08T13:47:57;6.90;;;4.22;;
59756;SDS011;45631;51.962;5.974;2023-09-08T13:50:26;7.05;;;4.07;;
59756;SDS011;45631;51.962;5.974;2023-09-08T13:52:56;6.80;;;4.07;;
59756;SDS011;45631;51.962;5.974;2023-09-08T13:55:27;9.60;;;4.30;;
59756;SDS011;45631;51.962;5.974;2023-09-08T13:58:04;8.55;;;4.25;;
59756;SDS011;45631;51.962;5.974;2023-09-08T14:00:36;6.95;;;4.40;;
59756;SDS011;45631;51.962;5.974;2023-09-08T14:03:11;7.68;;;4.25;;
59756;SDS011;45631;51.962;5.974;2023-09-08T14:05:46;8.05;;;4.38;;
59756;SDS011;45631;51.962;5.974;2023-09-08T14:08:20;7.40;;;4.20;;
59756;SDS011;45631;51.962;5.974;2023-09-08T14:10:53;8.98;;;4.32;;
59756;SDS011;45631;51.962;5.974;2023-09-08T14:13:25;7.72;;;4.45;;
59756;SDS011;45631;51.962;5.974;2023-09-08T14:15:53;7.60;;;4.28;;
59756;SDS011;45631;51.962;5.974;2023-09-08T14:18:24;8.68;;;4.57;;
59756;SDS011;45631;51.962;5.974;2023-09-08T14:20:53;9.07;;;4.45;;
59756;SDS011;45631;51.962;5.974;2023-09-08T14:23:22;7.35;;;4.32;;
59756;SDS011;45631;51.962;5.974;2023-09-08T14:25:50;8.02;;;4.00;;
59756;SDS011;45631;51.962;5.974;2023-09-08T14:28:20;8.20;;;4.40;;
59756;SDS011;45631;51.962;5.974;2023-09-08T14:30:49;7.93;;;4.22;;
59756;SDS011;45631;51.962;5.974;2023-09-08T14:33:18;7.78;;;4.28;;
59756;SDS011;45631;51.962;5.974;2023-09-08T14:35:47;6.68;;;4.20;;
59756;SDS011;45631;51.962;5.974;2023-09-08T14:38:18;9.13;;;4.72;;
59756;SDS011;45631;51.962;5.974;2023-09-08T14:40:53;8.15;;;4.57;;
59756;SDS011;45631;51.962;5.974;2023-09-08T14:43:25;6.70;;;4.43;;
59756;SDS011;45631;51.962;5.974;2023-09-08T14:45:54;6.90;;;4.10;;
59756;SDS011;45631;51.962;5.974;2023-09-08T14:48:24;7.10;;;4.03;;
59756;SDS011;45631;51.962;5.974;2023-09-08T14:50:53;8.25;;;5.32;;